Time;durP1;ratioP1;P1;durP2;ratioP2;P2;SDS_P1;SDS_P2;PMS_P1;PMS_P2;Temp;Humidity;BMP_temperature;BMP_pressure;BME280_temperature;BME280_humidity;BME280_pressure;Samples;Min_cycle;Max_cycle;Signal;HPM_P1;HPM_P2
2022/01/15 06:03:34;;;;;;;19.05;9.85;;;-1.20;99.90;;;;;;4878210;29;20078;-83
2022/01/15 06:06:02;;;;;;;16.67;9.85;;;-1.20;99.90;;;;;;4875208;29;20609;-81
2022/01/15 06:08:29;;;;;;;19.33;10.27;;;-1.10;99.90;;;;;;4874030;29;20045;-83
2022/01/15 06:10:56;;;;;;;18.00;10.65;;;-1.10;99.90;;;;;;4880816;29;20069;-82
2022/01/15 06:13:23;;;;;;;18.38;10.48;;;-1.20;99.90;;;;;;4885713;29;20507;-81
2022/01/15 06:15:50;;;;;;;20.05;10.90;;;-1.10;99.90;;;;;;4876573;29;20093;-85
2022/01/15 06:18:17;;;;;;;18.58;10.23;;;-1.30;99.90;;;;;;4887185;29;20125;-81
2022/01/15 06:20:46;;;;;;;21.30;10.57;;;-1.20;99.90;;;;;;4877054;29;20113;-81
2022/01/15 06:23:13;;;;;;;16.90;9.90;;;-1.10;99.90;;;;;;4882372;29;20131;-81
2022/01/15 06:25:40;;;;;;;16.15;9.85;;;-1.20;99.90;;;;;;4853236;29;20119;-82
2022/01/15 06:28:07;;;;;;;19.20;10.57;;;-1.30;99.90;;;;;;4866409;29;20466;-80
2022/01/15 06:30:35;;;;;;;20.50;10.07;;;-1.30;99.90;;;;;;4848769;29;20124;-80
2022/01/15 06:33:02;;;;;;;17.52;9.90;;;-1.20;99.90;;;;;;4866370;29;20088;-82
2022/01/15 06:35:31;;;;;;;16.77;9.93;;;-1.20;99.90;;;;;;4869617;29;20145;-81
2022/01/15 06:37:59;;;;;;;18.55;9.65;;;-1.20;99.90;;;;;;4862810;29;20056;-81
2022/01/15 06:40:26;;;;;;;18.83;10.23;;;-1.20;99.90;;;;;;4870232;29;20455;-83
2022/01/15 06:42:54;;;;;;;18.73;10.70;;;-1.00;99.90;;;;;;4865388;29;20048;-82
2022/01/15 06:45:21;;;;;;;19.33;10.82;;;-1.00;99.90;;;;;;4865497;29;20052;-81
2022/01/15 06:47:48;;;;;;;19.95;10.57;;;-1.10;99.90;;;;;;4857450;29;20125;-81
2022/01/15 06:50:15;;;;;;;19.20;10.63;;;-0.90;99.90;;;;;;4868689;29;20139;-81
2022/01/15 06:52:42;;;;;;;19.65;11.05;;;-0.90;99.90;;;;;;4866416;29;20131;-81
2022/01/15 06:55:12;;;;;;;21.35;10.77;;;-1.00;99.90;;;;;;4872449;29;20084;-80
2022/01/15 06:57:39;;;;;;;22.33;11.32;;;-0.90;99.90;;;;;;4869818;29;20124;-80
2022/01/15 07:00:09;;;;;;;20.30;10.30;;;-1.00;99.90;;;;;;4868547;29;20575;-80
2022/01/15 07:02:36;;;;;;;19.60;10.65;;;-1.10;99.90;;;;;;4884998;29;20049;-80
2022/01/15 07:05:05;;;;;;;21.38;11.18;;;-0.90;99.90;;;;;;4892702;29;20554;-80
2022/01/15 07:07:32;;;;;;;24.25;11.52;;;-1.10;99.90;;;;;;4887944;29;20049;-80
2022/01/15 07:10:00;;;;;;;16.15;9.50;;;-1.00;99.90;;;;;;4879854;29;20075;-81
2022/01/15 07:12:28;;;;;;;19.80;10.63;;;-1.00;99.90;;;;;;4887437;29;20081;-81
2022/01/15 07:14:56;;;;;;;18.65;10.80;;;-1.10;99.90;;;;;;4881969;29;20110;-81
2022/01/15 07:17:23;;;;;;;19.70;10.70;;;-1.10;99.90;;;;;;4898120;29;20060;-80
2022/01/15 07:19:51;;;;;;;23.42;12.18;;;-1.10;99.90;;;;;;4886275;29;20477;-78
2022/01/15 07:22:19;;;;;;;20.90;11.48;;;-1.10;99.90;;;;;;4891625;29;20048;-78
2022/01/15 07:24:46;;;;;;;20.33;10.82;;;-1.20;99.90;;;;;;4888405;29;20052;-80
2022/01/15 07:27:13;;;;;;;20.25;10.85;;;-1.20;99.90;;;;;;4889976;29;20085;-81
2022/01/15 07:29:42;;;;;;;21.52;10.23;;;-1.10;99.90;;;;;;4885236;29;20139;-80
2022/01/15 07:32:09;;;;;;;20.42;10.45;;;-1.40;99.90;;;;;;4895325;29;20068;-83
2022/01/15 07:34:37;;;;;;;18.42;10.52;;;-1.30;99.90;;;;;;4885494;29;20078;-83
2022/01/15 07:37:04;;;;;;;20.38;10.60;;;-1.30;99.90;;;;;;4894779;29;20083;-84
2022/01/15 07:39:32;;;;;;;17.13;9.85;;;-1.40;99.90;;;;;;4893554;29;20045;-80
2022/01/15 07:42:00;;;;;;;19.65;10.18;;;-1.40;99.90;;;;;;4878176;29;20073;-79
2022/01/15 07:44:27;;;;;;;20.95;10.50;;;-1.50;99.90;;;;;;4904413;29;20083;-80
2022/01/15 07:46:55;;;;;;;19.20;9.93;;;-1.60;99.90;;;;;;4891366;29;20479;-81
2022/01/15 07:49:23;;;;;;;17.88;9.65;;;-1.60;99.90;;;;;;4909777;29;20088;-82
2022/01/15 07:51:50;;;;;;;19.33;10.93;;;-1.70;99.90;;;;;;4905549;29;20083;-82
2022/01/15 07:54:17;;;;;;;19.23;10.50;;;-1.90;99.90;;;;;;4911240;29;20087;-82
2022/01/15 07:56:44;;;;;;;16.83;10.13;;;-2.00;99.90;;;;;;4904221;29;20076;-83
2022/01/15 07:59:12;;;;;;;17.35;10.23;;;-1.80;99.90;;;;;;4902968;29;20058;-80
2022/01/15 08:01:40;;;;;;;18.77;10.25;;;-1.80;99.90;;;;;;4903029;29;20087;-82
2022/01/15 08:04:08;;;;;;;19.95;10.98;;;-1.80;99.90;;;;;;4907572;29;20049;-84
2022/01/15 08:06:39;;;;;;;18.73;10.00;;;-1.80;99.90;;;;;;4903316;29;20088;-84
2022/01/15 08:09:06;;;;;;;19.15;10.52;;;-1.80;99.90;;;;;;4882340;29;20035;-86
2022/01/15 08:11:33;;;;;;;19.83;11.25;;;-1.80;99.90;;;;;;4901682;29;20075;-83
2022/01/15 08:14:03;;;;;;;20.67;11.48;;;-1.70;99.90;;;;;;4905150;29;20065;-86
2022/01/15 08:16:31;;;;;;;18.33;10.75;;;-1.60;99.90;;;;;;4914962;29;20099;-82
2022/01/15 08:18:58;;;;;;;18.77;10.98;;;-1.70;99.90;;;;;;4898573;29;20056;-83
2022/01/15 08:21:27;;;;;;;18.33;10.88;;;-1.50;99.90;;;;;;4898012;29;20080;-82
2022/01/15 08:23:54;;;;;;;15.93;9.88;;;-1.70;99.90;;;;;;4897769;29;20080;-83
2022/01/15 08:26:21;;;;;;;20.95;10.77;;;-1.60;99.90;;;;;;4895794;29;20080;-83
2022/01/15 08:28:48;;;;;;;16.60;10.40;;;-1.60;99.90;;;;;;4909403;29;20086;-82
2022/01/15 08:31:15;;;;;;;17.30;9.93;;;-1.50;99.90;;;;;;4891706;29;20048;-79
2022/01/15 08:33:42;;;;;;;18.25;10.63;;;-1.50;99.90;;;;;;4888623;29;20520;-79
2022/01/15 08:36:10;;;;;;;19.13;10.73;;;-1.40;99.90;;;;;;4892699;29;20049;-81
2022/01/15 08:38:40;;;;;;;17.70;10.27;;;-1.30;99.90;;;;;;4899762;29;20072;-82
2022/01/15 08:41:12;;;;;;;18.27;10.40;;;-1.40;99.90;;;;;;4905178;29;20095;-82
2022/01/15 08:43:40;;;;;;;17.70;10.18;;;-1.40;99.90;;;;;;4902289;29;20511;-84
2022/01/15 08:46:07;;;;;;;18.20;10.90;;;-1.20;99.90;;;;;;4879254;29;20048;-82
2022/01/15 08:48:34;;;;;;;18.30;10.38;;;-1.30;99.90;;;;;;4886381;29;20052;-80
2022/01/15 08:51:01;;;;;;;18.55;10.55;;;-1.30;99.90;;;;;;4894273;29;20579;-80
2022/01/15 08:53:28;;;;;;;18.90;11.23;;;-1.30;99.90;;;;;;4889502;29;20143;-82
2022/01/15 08:55:57;;;;;;;18.17;11.32;;;-1.00;99.90;;;;;;4891549;29;20120;-79
2022/01/15 08:58:25;;;;;;;18.70;11.23;;;-1.10;99.90;;;;;;4885504;29;20487;-80
2022/01/15 09:00:54;;;;;;;18.55;10.93;;;-0.90;99.90;;;;;;4885578;29;20049;-80
2022/01/15 09:03:23;;;;;;;17.20;9.95;;;-1.00;99.90;;;;;;4880159;29;20053;-80
2022/01/15 09:05:53;;;;;;;18.08;10.55;;;-0.90;99.90;;;;;;4886751;29;20044;-79
2022/01/15 09:08:24;;;;;;;19.67;11.40;;;-0.70;99.90;;;;;;4880742;29;20059;-80
2022/01/15 09:10:52;;;;;;;20.05;11.30;;;-0.80;99.90;;;;;;4881254;29;20514;-80
2022/01/15 09:13:21;;;;;;;20.20;12.02;;;-0.60;99.90;;;;;;4895247;29;20070;-80
2022/01/15 09:15:49;;;;;;;20.45;12.07;;;-0.50;99.90;;;;;;4883051;29;20136;-79
2022/01/15 09:18:17;;;;;;;21.70;12.75;;;-0.30;99.90;;;;;;4880877;29;20045;-80
2022/01/15 09:20:44;;;;;;;20.65;12.60;;;-0.40;99.90;;;;;;4887596;29;20052;-85
2022/01/15 09:23:12;;;;;;;25.27;13.27;;;-0.20;99.90;;;;;;4891528;29;20139;-81
2022/01/15 09:25:39;;;;;;;28.35;13.95;;;-0.10;99.90;;;;;;4888081;29;20511;-81
2022/01/15 09:30:53;;;;;;;25.52;13.15;;;0.00;99.90;;;;;;4890620;29;20064;-81
2022/01/15 09:33:20;;;;;;;22.13;11.40;;;0.10;99.90;;;;;;4886501;29;20144;-83
2022/01/15 09:35:47;;;;;;;17.85;10.85;;;0.10;99.90;;;;;;4879625;29;20080;-88
2022/01/15 09:38:16;;;;;;;17.67;10.10;;;0.10;99.90;;;;;;4871802;29;20131;-84
2022/01/15 09:40:44;;;;;;;17.92;10.25;;;0.10;99.90;;;;;;4881174;29;20056;-81
2022/01/15 09:43:15;;;;;;;17.77;11.13;;;0.30;99.90;;;;;;4880955;29;20081;-89
2022/01/15 09:45:44;;;;;;;20.55;11.10;;;0.30;99.90;;;;;;4881340;29;20049;-87
2022/01/15 09:48:15;;;;;;;19.52;10.82;;;0.20;99.90;;;;;;4881431;29;20139;-90
2022/01/15 09:50:45;;;;;;;18.23;10.93;;;0.30;99.90;;;;;;4880921;29;20132;-91
2022/01/15 09:53:14;;;;;;;17.05;10.10;;;0.30;99.90;;;;;;4881648;29;20135;-90
2022/01/15 09:55:41;;;;;;;19.88;11.13;;;0.30;99.90;;;;;;4880363;29;20048;-85
2022/01/15 09:58:08;;;;;;;18.35;11.98;;;0.50;99.90;;;;;;4881844;29;20059;-89
2022/01/15 10:00:35;;;;;;;17.30;10.88;;;0.40;99.90;;;;;;4881937;29;20479;-89
2022/01/15 10:03:03;;;;;;;18.83;11.45;;;0.50;99.90;;;;;;4880597;29;20136;-92
2022/01/15 10:05:32;;;;;;;20.92;12.65;;;0.50;99.90;;;;;;4880086;29;20124;-86
2022/01/15 10:08:02;;;;;;;19.38;11.73;;;0.60;99.90;;;;;;4891580;29;20045;-84
2022/01/15 10:10:31;;;;;;;19.48;11.63;;;0.60;99.90;;;;;;4879168;29;20127;-90
2022/01/15 10:13:15;;;;;;;19.83;11.85;;;0.70;99.90;;;;;;4879282;29;20051;-90
2022/01/15 10:15:44;;;;;;;16.55;11.13;;;0.60;99.90;;;;;;4880636;29;20509;-87
2022/01/15 10:18:24;;;;;;;17.48;10.88;;;0.90;99.90;;;;;;4879753;29;20057;-85
2022/01/15 10:20:55;;;;;;;19.45;11.60;;;0.90;99.90;;;;;;4875232;29;20053;-83
2022/01/15 10:23:25;;;;;;;18.52;11.20;;;0.90;99.90;;;;;;4879727;29;20156;-86
2022/01/15 10:26:20;;;;;;;20.73;11.18;;;1.00;99.90;;;;;;4879944;29;20053;-85
2022/01/15 10:28:53;;;;;;;19.50;12.15;;;1.20;99.90;;;;;;4832526;29;20048;-86
2022/01/15 10:31:23;;;;;;;20.05;11.77;;;1.30;99.90;;;;;;4874831;29;20495;-85
2022/01/15 10:33:50;;;;;;;18.60;11.82;;;1.40;99.90;;;;;;4876705;29;20044;-85
2022/01/15 10:36:25;;;;;;;20.55;12.75;;;1.30;99.90;;;;;;4876359;29;20053;-82
2022/01/15 10:38:52;;;;;;;;;;;1.50;99.90;;;;;;4885867;29;20053;-85
2022/01/15 10:41:34;;;;;;;21.58;12.95;;;1.60;99.90;;;;;;4880054;29;19924;-89
2022/01/15 10:44:02;;;;;;;21.85;13.05;;;1.50;99.90;;;;;;4886667;29;20128;-83
2022/01/15 10:46:37;;;;;;;21.05;12.60;;;1.60;99.90;;;;;;4875579;29;20049;-82
2022/01/15 10:49:23;;;;;;;20.40;12.68;;;1.70;99.90;;;;;;4874318;29;20519;-87
2022/01/15 10:55:01;;;;;;;21.50;13.23;;;1.80;99.90;;;;;;5158020;27;20382;-84
2022/01/15 10:57:33;;;;;;;;;;;2.00;99.90;;;;;;5133293;27;20047;-83
2022/01/15 11:00:13;;;;;;;18.52;11.25;;;2.10;99.90;;;;;;5117586;28;20010;-86
2022/01/15 11:02:42;;;;;;;18.70;11.70;;;2.00;99.90;;;;;;5130220;27;20046;-85
2022/01/15 11:05:41;;;;;;;18.98;11.93;;;2.10;99.90;;;;;;5118191;27;20518;-85
2022/01/15 11:08:14;;;;;;;20.20;12.05;;;2.30;99.90;;;;;;5135062;27;20047;-84
2022/01/15 11:11:02;;;;;;;19.30;11.48;;;2.30;99.90;;;;;;5132984;27;20047;-83
2022/01/15 11:13:32;;;;;;;21.60;11.80;;;2.40;99.90;;;;;;5133766;27;20057;-84
2022/01/15 11:16:02;;;;;;;18.45;12.27;;;2.40;99.90;;;;;;5146930;27;20045;-83
2022/01/15 11:18:31;;;;;;;19.10;12.50;;;2.60;99.90;;;;;;5147625;27;20047;-83
2022/01/15 11:21:02;;;;;;;19.52;11.82;;;2.60;99.90;;;;;;5147521;27;20043;-83
2022/01/15 11:23:31;;;;;;;17.85;11.70;;;2.60;99.90;;;;;;5147394;27;20042;-83
2022/01/15 11:26:02;;;;;;;18.27;11.68;;;2.70;99.90;;;;;;5148017;27;20157;-82
2022/01/15 11:28:31;;;;;;;17.75;10.88;;;2.90;99.90;;;;;;5145403;27;20155;-83
2022/01/15 11:31:01;;;;;;;19.77;12.00;;;2.80;99.90;;;;;;5146415;27;20128;-83
2022/01/15 11:33:32;;;;;;;18.55;11.80;;;2.90;99.90;;;;;;5147639;27;20138;-83
2022/01/15 11:35:59;;;;;;;20.08;11.25;;;2.90;99.90;;;;;;5147865;27;20387;-82
2022/01/15 11:38:44;;;;;;;17.17;11.07;;;3.00;99.90;;;;;;5147798;27;20497;-83
2022/01/15 11:41:42;;;;;;;16.90;10.90;;;3.00;99.90;;;;;;5147596;27;20154;-83
2022/01/15 11:44:21;;;;;;;16.60;11.10;;;3.00;99.90;;;;;;5147910;27;20479;-83
2022/01/15 11:46:52;;;;;;;16.80;10.50;;;3.20;99.90;;;;;;5110390;27;20388;-83
2022/01/15 11:49:34;;;;;;;16.88;10.80;;;3.20;99.90;;;;;;5129212;27;20035;-81
2022/01/15 11:52:44;;;;;;;18.52;11.65;;;3.30;99.90;;;;;;5128595;27;20047;-87
2022/01/15 11:55:18;;;;;;;19.20;11.93;;;3.40;99.90;;;;;;5096207;28;20097;-79
2022/01/15 11:57:58;;;;;;;19.52;11.27;;;3.40;99.90;;;;;;5098226;28;20520;-79
2022/01/15 12:00:43;;;;;;;18.30;11.77;;;3.60;99.90;;;;;;5094665;28;20066;-81
2022/01/15 12:03:14;;;;;;;16.88;10.93;;;3.70;99.90;;;;;;5095919;28;20474;-79
2022/01/15 12:05:48;;;;;;;17.75;11.07;;;3.80;99.90;;;;;;5083874;28;20059;-83
2022/01/15 12:08:33;;;;;;;18.48;11.77;;;4.00;99.90;;;;;;5090366;28;20067;-84
2022/01/15 12:11:06;;;;;;;17.38;11.38;;;4.00;99.90;;;;;;5080714;28;20485;-82
2022/01/15 12:13:51;;;;;;;18.25;11.52;;;4.20;99.90;;;;;;5091742;28;20131;-84
2022/01/15 12:16:29;;;;;;;18.95;11.90;;;4.40;99.90;;;;;;5083696;28;20101;-79
2022/01/15 12:18:59;;;;;;;19.65;12.38;;;3.90;99.90;;;;;;5072697;28;20052;-78
2022/01/15 12:21:55;;;;;;;17.92;11.68;;;;;;;;;;5073803;28;20135;-79
2022/01/15 12:24:52;;;;;;;17.50;11.55;;;4.90;99.70;;;;;;5072111;28;20149;-80
2022/01/15 12:27:20;;;;;;;19.75;12.70;;;4.90;99.90;;;;;;5072985;28;20576;-84
2022/01/15 12:30:00;;;;;;;20.70;14.02;;;5.00;99.70;;;;;;5069935;28;20044;-81
2022/01/15 12:32:31;;;;;;;23.65;14.95;;;5.10;99.40;;;;;;5065507;28;20044;-81
2022/01/15 12:35:00;;;;;;;22.73;13.65;;;5.30;99.30;;;;;;5066768;28;20132;-81
2022/01/15 12:37:28;;;;;;;24.88;14.23;;;5.40;99.00;;;;;;5061704;28;20119;-81
2022/01/15 12:39:55;;;;;;;29.55;16.58;;;5.50;98.90;;;;;;5086477;28;20052;-83
2022/01/15 12:42:31;;;;;;;26.08;15.75;;;5.70;98.60;;;;;;5076949;28;20135;-82
2022/01/15 12:45:00;;;;;;;20.02;13.32;;;5.80;98.40;;;;;;5087117;28;20093;-78
2022/01/15 12:47:42;;;;;;;20.52;13.10;;;6.00;97.90;;;;;;5082828;28;20080;-80
2022/01/15 12:50:09;;;;;;;21.20;14.02;;;6.20;97.50;;;;;;5082805;28;20103;-78
2022/01/15 12:52:36;;;;;;;21.25;13.52;;;6.30;97.10;;;;;;5088317;27;20438;-79
2022/01/15 12:55:03;;;;;;;22.10;13.13;;;6.50;96.80;;;;;;5124644;27;20061;-79
2022/01/15 12:57:39;;;;;;;20.27;13.00;;;6.70;96.20;;;;;;5112246;27;20104;-76
2022/01/15 13:00:11;;;;;;;20.05;13.55;;;6.90;95.80;;;;;;5121670;27;20122;-78
2022/01/15 13:02:38;;;;;;;20.52;13.98;;;7.10;95.20;;;;;;5121891;27;20043;-80
2022/01/15 13:05:06;;;;;;;20.33;13.93;;;7.40;94.20;;;;;;5122856;27;20131;-79
2022/01/15 13:07:52;;;;;;;21.25;14.05;;;7.60;94.00;;;;;;5129273;27;20123;-79
2022/01/15 13:10:45;;;;;;;21.55;14.65;;;7.80;93.40;;;;;;5123131;27;20043;-78
2022/01/15 13:13:20;;;;;;;22.23;15.00;;;8.00;92.70;;;;;;5126392;27;20043;-79
2022/01/15 13:15:49;;;;;;;;;;;8.40;92.90;;;;;;5122641;27;20143;-78
2022/01/15 13:18:18;;;;;;;20.67;13.95;;;9.10;92.10;;;;;;5123602;27;20006;-77
2022/01/15 13:20:50;;;;;;;22.73;14.77;;;10.00;90.90;;;;;;5124040;27;20476;-80
2022/01/15 13:23:19;;;;;;;20.45;14.38;;;11.60;85.90;;;;;;5124826;27;20069;-77
2022/01/15 13:25:48;;;;;;;18.70;13.45;;;13.70;75.00;;;;;;5126099;27;20134;-80
2022/01/15 13:28:16;;;;;;;18.08;13.48;;;15.80;63.50;;;;;;5124278;27;20076;-78
2022/01/15 13:30:49;;;;;;;18.83;13.85;;;17.90;55.80;;;;;;5116239;27;20098;-77
2022/01/15 13:33:16;;;;;;;18.80;14.15;;;19.50;49.70;;;;;;5123474;27;20148;-76
2022/01/15 13:35:45;;;;;;;17.42;13.60;;;20.70;46.00;;;;;;5126106;27;20123;-76
2022/01/15 13:38:15;;;;;;;19.33;13.38;;;21.40;43.80;;;;;;5124489;27;20054;-76
2022/01/15 13:40:46;;;;;;;19.30;13.75;;;21.90;42.50;;;;;;5118002;27;20131;-79
2022/01/15 13:43:27;;;;;;;19.10;14.13;;;22.10;41.30;;;;;;5122889;27;20054;-79
2022/01/15 13:46:06;;;;;;;17.60;13.32;;;22.20;40.90;;;;;;5125897;27;20130;-78
2022/01/15 13:48:34;;;;;;;17.52;13.52;;;22.50;40.30;;;;;;5114893;27;20040;-79
2022/01/15 13:53:48;;;;;;;17.60;13.45;;;23.80;38.80;;;;;;5123837;27;20521;-78
2022/01/15 13:56:25;;;;;;;17.40;13.57;;;24.70;37.40;;;;;;5123656;27;20043;-79
2022/01/15 13:58:57;;;;;;;17.95;13.40;;;25.50;36.60;;;;;;5123053;27;20071;-78
2022/01/15 14:01:31;;;;;;;17.70;13.77;;;;;;;;;;5124028;27;20044;-77
2022/01/15 14:04:14;;;;;;;16.88;13.32;;;;;;;;;;5125423;27;20057;-80
2022/01/15 14:06:42;;;;;;;16.90;13.30;;;;;;;;;;5112127;27;20071;-77
2022/01/15 14:09:15;;;;;;;15.70;13.02;;;;;;;;;;5131530;27;20043;-77
2022/01/15 14:11:54;;;;;;;17.02;13.10;;;;;;;;;;5121814;27;20464;-78
2022/01/15 14:14:22;;;;;;;16.45;13.70;;;;;;;;;;5123097;27;20086;-79
2022/01/15 14:16:54;;;;;;;16.48;13.65;;;;;;;;;;5120583;27;20103;-77
2022/01/15 14:19:49;;;;;;;17.20;13.45;;;;;;;;;;5122502;27;20134;-78
2022/01/15 14:22:18;;;;;;;15.30;12.55;;;;;;;;;;5123103;27;20047;-77
2022/01/15 14:24:47;;;;;;;16.77;13.30;;;32.40;29.30;;;;;;5125679;27;20039;-77
2022/01/15 14:27:22;;;;;;;17.25;13.60;;;32.30;29.70;;;;;;5123509;27;20123;-77
2022/01/15 14:29:49;;;;;;;17.05;13.32;;;32.30;29.50;;;;;;5121435;27;20495;-80
2022/01/15 14:32:18;;;;;;;17.77;13.75;;;32.30;29.40;;;;;;5128677;27;20039;-78
2022/01/15 14:34:51;;;;;;;17.08;13.52;;;32.10;29.40;;;;;;5121450;27;20074;-78
2022/01/15 14:37:18;;;;;;;19.65;14.68;;;31.90;29.40;;;;;;5122937;27;20083;-76
2022/01/15 14:39:46;;;;;;;16.95;13.85;;;31.70;29.30;;;;;;5126320;27;20053;-79
2022/01/15 14:42:13;;;;;;;18.08;13.95;;;31.50;29.50;;;;;;5113818;28;20127;-79
2022/01/15 14:44:40;;;;;;;16.65;12.90;;;31.20;29.50;;;;;;5110829;28;20048;-77
2022/01/15 14:47:07;;;;;;;17.02;13.55;;;31.00;29.60;;;;;;5115271;28;20047;-77
2022/01/15 14:49:36;;;;;;;18.30;14.25;;;30.80;30.10;;;;;;5124265;27;20075;-77
2022/01/15 14:52:03;;;;;;;18.90;14.55;;;30.40;29.70;;;;;;5125309;28;20130;-78
2022/01/15 14:54:30;;;;;;;20.20;15.05;;;29.80;29.80;;;;;;5113013;28;20058;-77
2022/01/15 14:56:58;;;;;;;19.10;14.48;;;29.20;30.00;;;;;;5121257;28;20046;-79
2022/01/15 14:59:25;;;;;;;17.75;13.88;;;;;;;;;;5122410;28;20197;-78
2022/01/15 15:01:53;;;;;;;18.52;14.85;;;27.10;67.30;;;;;;5121232;28;20485;-79
2022/01/15 15:04:20;;;;;;;22.23;15.45;;;27.00;31.40;;;;;;5121615;28;20058;-76
2022/01/15 15:06:48;;;;;;;20.35;14.88;;;26.50;32.00;;;;;;5121141;28;20131;-78
2022/01/15 15:09:15;;;;;;;19.27;15.05;;;26.10;32.40;;;;;;5117400;28;20065;-78
2022/01/15 15:11:42;;;;;;;19.60;15.27;;;25.70;32.60;;;;;;5122340;28;20404;-78
2022/01/15 15:14:09;;;;;;;19.42;14.55;;;25.50;33.60;;;;;;5121159;28;20078;-77
2022/01/15 15:16:37;;;;;;;20.45;15.13;;;25.20;33.20;;;;;;5123664;28;20045;-77
2022/01/15 15:19:04;;;;;;;20.23;14.55;;;24.90;33.40;;;;;;5124237;28;20126;-77
2022/01/15 15:21:33;;;;;;;19.50;14.32;;;24.50;33.70;;;;;;5113163;28;20112;-77
2022/01/15 15:24:04;;;;;;;18.98;14.40;;;24.10;34.10;;;;;;5121049;28;20135;-76
2022/01/15 15:26:31;;;;;;;20.83;15.48;;;23.60;34.60;;;;;;5122464;28;20067;-74
2022/01/15 15:28:58;;;;;;;32.78;22.40;;;23.10;35.20;;;;;;5123282;28;20047;-77
2022/01/15 15:31:25;;;;;;;27.10;19.02;;;22.40;35.80;;;;;;5116045;28;20465;-76
2022/01/15 15:33:54;;;;;;;58.42;35.30;;;21.60;36.60;;;;;;5125096;28;20139;-74
2022/01/15 15:36:21;;;;;;;29.13;20.38;;;20.80;37.70;;;;;;5123408;28;20096;-78
2022/01/15 15:38:48;;;;;;;27.10;18.33;;;19.90;38.60;;;;;;5121132;27;20418;-79
2022/01/15 15:41:17;;;;;;;24.20;17.08;;;18.80;39.70;;;;;;5131117;27;20495;-76
2022/01/15 15:43:44;;;;;;;22.23;15.95;;;17.60;41.30;;;;;;5122536;27;20049;-75
2022/01/15 15:46:11;;;;;;;26.35;18.00;;;16.40;51.50;;;;;;5127592;27;20480;-75
2022/01/15 15:48:38;;;;;;;23.88;16.73;;;15.40;45.00;;;;;;5123957;27;20486;-77
2022/01/15 15:51:05;;;;;;;23.98;17.35;;;14.40;46.80;;;;;;5125095;27;20047;-79
2022/01/15 15:53:32;;;;;;;26.95;18.90;;;13.50;48.40;;;;;;5104989;27;20265;-80
2022/01/15 15:55:59;;;;;;;26.25;18.17;;;12.80;52.60;;;;;;5097137;27;20138;-75
2022/01/15 15:58:29;;;;;;;28.77;18.25;;;12.10;51.60;;;;;;5106298;27;20130;-77
2022/01/15 16:00:56;;;;;;;25.38;16.98;;;11.50;53.00;;;;;;5099257;27;20051;-76
2022/01/15 16:03:23;;;;;;;27.90;18.65;;;10.90;56.10;;;;;;5102207;27;20062;-79
2022/01/15 16:05:50;;;;;;;27.40;18.08;;;10.40;55.90;;;;;;5099975;28;20059;-76
2022/01/15 16:08:17;;;;;;;27.23;17.63;;;9.90;57.20;;;;;;5097123;28;20130;-78
2022/01/15 16:10:44;;;;;;;26.75;17.17;;;9.50;58.40;;;;;;5118248;27;20131;-75
2022/01/15 16:13:11;;;;;;;28.33;17.30;;;8.90;59.60;;;;;;5126135;27;20044;-78
2022/01/15 16:15:39;;;;;;;25.48;17.15;;;8.70;60.50;;;;;;5129653;27;20047;-77
2022/01/15 16:18:06;;;;;;;25.20;17.67;;;8.40;61.50;;;;;;5128155;27;20039;-78
2022/01/15 16:20:33;;;;;;;27.00;17.33;;;8.10;62.50;;;;;;5126228;27;20564;-77
2022/01/15 16:23:00;;;;;;;29.52;17.08;;;7.80;63.30;;;;;;5123555;27;20050;-78
2022/01/15 16:25:27;;;;;;;27.10;18.02;;;7.60;64.40;;;;;;5099880;27;20083;-76
2022/01/15 16:27:54;;;;;;;31.55;19.58;;;7.30;66.20;;;;;;5112450;27;20161;-80
2022/01/15 16:30:22;;;;;;;33.53;19.95;;;7.10;67.00;;;;;;5128939;27;20134;-75
2022/01/15 16:32:50;;;;;;;33.03;19.13;;;6.90;68.30;;;;;;5124508;27;20126;-78
2022/01/15 16:35:17;;;;;;;38.58;23.13;;;6.70;70.20;;;;;;5114219;27;20040;-79
2022/01/15 16:37:45;;;;;;;48.58;26.85;;;6.60;72.50;;;;;;5105813;27;20481;-84
2022/01/15 16:40:13;;;;;;;34.03;20.25;;;6.40;75.30;;;;;;5098732;28;20044;-77
2022/01/15 16:42:43;;;;;;;28.75;17.23;;;6.20;79.20;;;;;;5101861;28;20050;-77
2022/01/15 16:45:13;;;;;;;26.77;15.63;;;6.10;83.40;;;;;;5103607;28;20052;-77
2022/01/15 16:47:40;;;;;;;27.25;16.05;;;5.90;87.00;;;;;;5119739;27;20050;-78
2022/01/15 16:50:10;;;;;;;25.42;15.75;;;5.80;90.00;;;;;;5125560;27;20400;-79
2022/01/15 16:52:38;;;;;;;28.33;16.08;;;5.60;91.20;;;;;;5121321;27;20151;-76
2022/01/15 16:55:08;;;;;;;25.23;14.25;;;;;;;;;;5123361;27;20098;-79
2022/01/15 16:57:35;;;;;;;26.85;15.23;;;5.40;92.80;;;;;;5098538;27;20044;-78
2022/01/15 17:00:05;;;;;;;25.63;14.88;;;5.30;93.60;;;;;;5102357;27;20040;-78
2022/01/15 17:02:32;;;;;;;25.83;15.20;;;5.20;94.10;;;;;;5103427;28;20052;-77
2022/01/15 17:04:59;;;;;;;26.42;14.27;;;5.10;94.50;;;;;;5098696;27;20127;-77
2022/01/15 17:07:28;;;;;;;26.70;14.52;;;5.00;94.70;;;;;;5108367;27;20068;-78
2022/01/15 17:09:55;;;;;;;25.75;13.82;;;4.90;95.00;;;;;;5099973;28;20048;-78
2022/01/15 17:12:22;;;;;;;25.15;14.00;;;4.80;95.30;;;;;;5105299;27;20434;-76
2022/01/15 17:14:50;;;;;;;24.98;13.63;;;4.80;95.50;;;;;;5103747;27;20067;-77
2022/01/15 17:17:17;;;;;;;26.45;14.52;;;4.70;95.80;;;;;;5104193;27;20040;-79
2022/01/15 17:19:44;;;;;;;28.08;15.13;;;4.60;96.10;;;;;;5098569;27;20508;-77
2022/01/15 17:22:11;;;;;;;30.63;15.95;;;4.60;96.30;;;;;;5095941;27;20052;-77
2022/01/15 17:24:39;;;;;;;27.23;16.02;;;4.50;96.50;;;;;;5102433;28;20087;-77
2022/01/15 17:27:07;;;;;;;26.45;15.35;;;4.40;96.60;;;;;;5102529;28;20071;-79
2022/01/15 17:29:34;;;;;;;28.55;15.57;;;4.30;96.90;;;;;;5102881;28;20127;-79
2022/01/15 17:32:01;;;;;;;25.80;14.75;;;4.30;97.10;;;;;;5103604;28;20075;-78
2022/01/15 17:34:28;;;;;;;26.58;15.13;;;4.20;97.20;;;;;;5110756;27;20131;-78
2022/01/15 17:36:55;;;;;;;25.33;14.13;;;4.10;97.50;;;;;;5101169;28;20526;-78
2022/01/15 17:39:25;;;;;;;28.15;15.32;;;4.10;97.70;;;;;;5100305;27;20123;-79
2022/01/15 17:41:54;;;;;;;26.48;14.90;;;4.00;97.80;;;;;;5104562;28;20055;-77
2022/01/15 17:44:21;;;;;;;27.83;14.48;;;3.90;98.00;;;;;;5101297;27;20047;-74
2022/01/15 17:46:49;;;;;;;26.30;13.95;;;3.90;98.30;;;;;;5121310;27;20498;-78
2022/01/15 17:49:17;;;;;;;26.00;14.10;;;3.80;98.40;;;;;;5125372;27;20457;-77
2022/01/15 17:51:44;;;;;;;26.75;13.70;;;3.50;98.30;;;;;;5123998;27;20066;-76
2022/01/15 17:54:12;;;;;;;25.70;13.48;;;3.70;98.90;;;;;;5118017;27;20115;-77
2022/01/15 17:56:39;;;;;;;24.35;13.77;;;3.60;99.10;;;;;;5128631;27;20058;-76
2022/01/15 17:59:07;;;;;;;25.13;13.93;;;3.50;99.10;;;;;;5122106;27;20142;-77
2022/01/15 18:01:34;;;;;;;25.50;13.50;;;3.50;99.30;;;;;;5124747;27;20146;-76
2022/01/15 18:04:02;;;;;;;24.77;13.68;;;3.50;99.50;;;;;;5117789;27;20054;-76
2022/01/15 18:06:29;;;;;;;23.42;13.10;;;3.50;99.60;;;;;;5129462;27;20130;-76
2022/01/15 18:08:56;;;;;;;25.00;13.27;;;3.40;99.70;;;;;;5121467;27;20043;-74
2022/01/15 18:11:23;;;;;;;25.40;13.63;;;3.40;99.80;;;;;;5124275;27;20077;-78
2022/01/15 18:13:53;;;;;;;25.05;14.07;;;3.30;99.80;;;;;;5125323;27;20043;-78
2022/01/15 18:16:22;;;;;;;24.88;14.32;;;3.40;99.90;;;;;;5130299;27;20097;-78
2022/01/15 18:18:49;;;;;;;25.52;14.50;;;3.30;99.90;;;;;;5111983;27;20428;-76
2022/01/15 18:21:17;;;;;;;25.42;14.45;;;3.30;99.90;;;;;;5121698;27;20122;-78
2022/01/15 18:23:44;;;;;;;29.40;15.93;;;3.30;99.90;;;;;;5121606;27;20108;-78
2022/01/15 18:26:11;;;;;;;28.88;14.90;;;3.20;99.90;;;;;;5122516;27;20378;-77
2022/01/15 18:28:39;;;;;;;27.20;15.38;;;3.20;99.90;;;;;;5121228;27;20074;-77
2022/01/15 18:31:07;;;;;;;27.60;14.50;;;3.20;99.90;;;;;;5121800;27;20047;-77
2022/01/15 18:33:35;;;;;;;25.30;14.27;;;3.10;99.90;;;;;;5126348;27;20054;-76
2022/01/15 18:36:03;;;;;;;28.80;15.75;;;3.10;99.90;;;;;;5120634;27;20450;-79
2022/01/15 18:38:30;;;;;;;26.17;14.65;;;3.00;99.90;;;;;;5127624;27;20473;-77
2022/01/15 18:40:57;;;;;;;26.50;15.00;;;3.00;99.90;;;;;;5121028;27;20075;-75
2022/01/15 18:43:24;;;;;;;27.48;15.27;;;2.90;99.90;;;;;;5128073;27;20039;-77
2022/01/15 18:45:53;;;;;;;27.05;14.40;;;2.90;99.90;;;;;;5121359;27;20512;-77
2022/01/15 18:48:20;;;;;;;28.33;15.43;;;2.90;99.90;;;;;;5122944;27;20086;-78
2022/01/15 18:50:49;;;;;;;27.98;14.32;;;2.90;99.90;;;;;;5126334;27;20043;-76
2022/01/15 18:53:17;;;;;;;29.30;15.48;;;2.80;99.90;;;;;;5118052;28;20060;-76
2022/01/15 18:55:44;;;;;;;26.10;14.65;;;2.80;99.90;;;;;;5124203;28;20047;-77
2022/01/15 18:58:11;;;;;;;24.73;14.35;;;2.80;99.90;;;;;;5124783;28;20131;-77
2022/01/15 19:00:38;;;;;;;27.45;15.20;;;2.80;99.90;;;;;;5124602;28;20046;-76
2022/01/15 19:03:05;;;;;;;27.23;14.95;;;2.80;99.90;;;;;;5119007;28;20044;-76